createdAt,value
2018-02-21T00:00:03.292Z,40.13
2018-02-21T00:02:31.548Z,41.30
2018-02-21T00:05:00.365Z,44.00
2018-02-21T00:07:29.486Z,40.00
2018-02-21T00:09:57.967Z,41.33
2018-02-21T00:12:27.966Z,38.20
2018-02-21T00:14:55.907Z,36.20
2018-02-21T00:17:24.685Z,34.70
2018-02-21T00:19:53.425Z,35.60
2018-02-21T00:22:21.325Z,32.63
2018-02-21T00:24:49.406Z,34.77
2018-02-21T00:27:17.405Z,40.07
2018-02-21T00:29:45.557Z,35.03
2018-02-21T00:32:13.925Z,39.00
2018-02-21T00:34:41.888Z,37.40
2018-02-21T00:37:09.747Z,31.40
2018-02-21T00:39:38.053Z,38.33
2018-02-21T00:42:06.951Z,39.07
2018-02-21T00:44:34.851Z,37.50
2018-02-21T00:47:02.870Z,38.67
2018-02-21T00:49:31.531Z,41.00
2018-02-21T00:51:59.469Z,41.90
2018-02-21T00:54:27.850Z,39.93
2018-02-21T00:56:55.610Z,39.93
2018-02-21T00:59:23.869Z,39.93
2018-02-21T01:01:52.525Z,35.67
2018-02-21T01:04:20.725Z,33.43
2018-02-21T01:06:49.006Z,34.53
2018-02-21T01:09:17.025Z,41.77
2018-02-21T01:11:44.869Z,36.00
2018-02-21T01:14:12.748Z,38.27
2018-02-21T01:16:40.565Z,39.77
2018-02-21T01:19:08.786Z,41.87
2018-02-21T01:21:36.945Z,39.10
2018-02-21T01:24:05.911Z,41.17
2018-02-21T01:26:34.165Z,41.13
2018-02-21T01:29:02.445Z,44.00
2018-02-21T01:31:30.465Z,45.50
2018-02-21T01:33:59.105Z,47.43
2018-02-21T01:36:27.225Z,46.37
2018-02-21T01:38:55.725Z,47.93
2018-02-21T01:41:23.485Z,48.77
2018-02-21T01:43:52.147Z,52.70
2018-02-21T01:46:19.986Z,53.43
2018-02-21T01:48:47.866Z,50.83
2018-02-21T01:51:15.742Z,51.43
2018-02-21T01:53:43.567Z,47.00
2018-02-21T01:56:12.246Z,45.30
2018-02-21T01:58:41.245Z,45.57
2018-02-21T02:01:10.053Z,46.93
2018-02-21T02:03:37.873Z,45.97
2018-02-21T02:06:05.833Z,52.70
2018-02-21T02:08:33.794Z,53.23
2018-02-21T02:11:01.913Z,54.47
2018-02-21T02:13:29.813Z,52.50
2018-02-21T02:15:58.373Z,51.07
2018-02-21T02:18:26.553Z,44.97
2018-02-21T02:20:54.714Z,51.93
2018-02-21T02:23:22.533Z,48.63
2018-02-21T02:25:50.413Z,51.13
2018-02-21T02:28:18.861Z,52.53
2018-02-21T02:30:46.713Z,53.33
2018-02-21T02:33:16.533Z,52.83
2018-02-21T02:35:44.356Z,57.53
2018-02-21T02:38:23.933Z,68.53
2018-02-21T02:40:52.134Z,59.33
2018-02-21T02:43:20.333Z,59.77
2018-02-21T02:45:48.936Z,57.10
2018-02-21T02:48:17.452Z,85.03
2018-02-21T02:50:46.373Z,77.87
2018-02-21T02:53:14.855Z,75.13
2018-02-21T02:55:43.433Z,86.93
2018-02-21T02:58:12.276Z,83.77
2018-02-21T03:00:40.966Z,72.47
2018-02-21T03:03:09.087Z,70.53
2018-02-21T03:05:36.946Z,99.97
2018-02-21T03:08:04.806Z,75.57
2018-02-21T03:10:33.526Z,123.23
2018-02-21T03:13:02.026Z,111.27
2018-02-21T03:15:30.467Z,108.97
2018-02-21T03:17:58.697Z,94.23
2018-02-21T03:20:26.546Z,90.40
2018-02-21T03:22:54.667Z,81.73
2018-02-21T03:25:22.446Z,78.57
2018-02-21T03:27:50.428Z,80.07
2018-02-21T03:30:18.310Z,78.80
2018-02-21T03:32:46.366Z,99.73
2018-02-21T03:35:14.206Z,148.63
2018-02-21T03:37:42.175Z,87.10
2018-02-21T03:40:10.146Z,68.90
2018-02-21T03:42:37.987Z,73.67
2018-02-21T03:45:06.086Z,72.63
2018-02-21T03:47:34.365Z,71.90
2018-02-21T03:50:02.306Z,68.07
2018-02-21T03:52:31.087Z,67.93
2018-02-21T03:54:59.006Z,70.13
2018-02-21T03:57:27.067Z,72.30
2018-02-21T03:59:55.256Z,61.40
2018-02-21T04:02:23.130Z,55.50
2018-02-21T04:04:50.949Z,62.77
2018-02-21T04:07:19.611Z,58.90
2018-02-21T04:09:47.810Z,68.57
2018-02-21T04:12:17.250Z,67.33
2018-02-21T04:14:45.730Z,65.17
2018-02-21T04:17:13.610Z,67.17
2018-02-21T04:19:41.569Z,61.10
2018-02-21T04:22:10.170Z,45.77
2018-02-21T04:24:38.311Z,46.63
2018-02-21T04:27:06.490Z,48.30
2018-02-21T04:29:34.450Z,50.20
2018-02-21T04:32:02.390Z,54.93
2018-02-21T04:34:30.678Z,52.07
2018-02-21T04:36:58.569Z,52.77
2018-02-21T04:39:26.410Z,58.43
2018-02-21T04:41:54.650Z,58.67
2018-02-21T04:44:23.530Z,41.57
2018-02-21T04:46:51.490Z,46.63
2018-02-21T04:49:20.748Z,54.80
2018-02-21T04:51:49.490Z,61.47
2018-02-21T04:57:27.010Z,54.13
2018-02-21T05:00:02.231Z,56.03
2018-02-21T05:02:30.707Z,62.67
2018-02-21T05:04:59.207Z,43.33
2018-02-21T05:07:28.191Z,47.57
2018-02-21T05:09:56.453Z,45.10
2018-02-21T05:12:24.709Z,45.97
2018-02-21T05:14:52.994Z,45.17
2018-02-21T05:17:21.188Z,49.57
2018-02-21T05:19:49.768Z,42.17
2018-02-21T05:22:18.568Z,35.57
2018-02-21T05:24:46.509Z,40.13
2018-02-21T05:27:14.468Z,42.53
2018-02-21T05:29:42.488Z,39.77
2018-02-21T05:32:10.529Z,50.73
2018-02-21T05:34:39.290Z,33.63
2018-02-21T05:37:07.488Z,28.07
2018-02-21T05:39:35.748Z,32.13
2018-02-21T05:42:05.908Z,36.20
2018-02-21T05:44:33.811Z,49.67
2018-02-21T05:47:02.388Z,47.13
2018-02-21T05:49:31.488Z,50.30
2018-02-21T05:51:59.348Z,49.23
2018-02-21T05:54:27.488Z,46.63
2018-02-21T05:56:55.737Z,44.27
2018-02-21T05:59:25.130Z,45.73
2018-02-21T06:01:52.987Z,31.07
2018-02-21T06:04:21.086Z,31.17
2018-02-21T06:06:49.267Z,48.50
2018-02-21T06:09:17.914Z,51.97
2018-02-21T06:11:46.606Z,49.83
2018-02-21T06:14:14.615Z,54.77
2018-02-21T06:16:42.868Z,51.47
2018-02-21T06:19:11.526Z,40.23
2018-02-21T06:21:39.506Z,30.93
2018-02-21T06:24:07.610Z,36.70
2018-02-21T06:26:35.447Z,30.63
2018-02-21T06:29:03.966Z,36.30
2018-02-21T06:31:31.926Z,32.47
2018-02-21T06:33:59.955Z,33.27
2018-02-21T06:36:28.086Z,32.50
2018-02-21T06:38:56.767Z,39.40
2018-02-21T06:41:25.487Z,36.70
2018-02-21T06:43:53.481Z,58.33
2018-02-21T06:46:22.146Z,69.03
2018-02-21T06:48:50.606Z,74.40
2018-02-21T06:51:19.786Z,77.17
2018-02-21T06:53:48.446Z,81.57
2018-02-21T06:56:16.331Z,79.17
2018-02-21T06:58:44.171Z,68.07
2018-02-21T07:01:12.033Z,65.73
2018-02-21T07:03:40.395Z,61.93
2018-02-21T07:06:08.374Z,60.37
2018-02-21T07:08:36.591Z,57.80
2018-02-21T07:11:04.368Z,55.93
2018-02-21T07:13:32.267Z,61.77
2018-02-21T07:16:00.907Z,63.43
2018-02-21T07:18:30.038Z,56.00
2018-02-21T07:20:57.806Z,59.77
2018-02-21T07:23:25.826Z,59.27
2018-02-21T07:25:53.626Z,55.10
2018-02-21T07:28:21.806Z,59.73
2018-02-21T07:30:50.528Z,52.80
2018-02-21T07:33:18.407Z,51.83
2018-02-21T07:35:46.230Z,54.23
2018-02-21T07:38:14.808Z,49.27
2018-02-21T07:40:43.508Z,56.43
2018-02-21T07:43:11.347Z,59.67
2018-02-21T07:45:39.187Z,56.93
2018-02-21T07:48:07.127Z,54.30
2018-02-21T07:50:35.087Z,54.67
2018-02-21T07:53:02.947Z,61.10
2018-02-21T07:55:30.847Z,60.97
2018-02-21T07:57:59.972Z,61.53
2018-02-21T08:00:27.683Z,62.30
2018-02-21T08:02:55.610Z,58.23
2018-02-21T08:05:23.507Z,59.90
2018-02-21T08:07:51.568Z,54.40
2018-02-21T08:10:19.390Z,49.13
2018-02-21T08:12:47.328Z,51.27
2018-02-21T08:15:15.508Z,53.50
2018-02-21T08:17:44.868Z,48.23
2018-02-21T08:20:13.447Z,51.07
2018-02-21T08:22:41.348Z,52.83
2018-02-21T08:25:10.187Z,51.37
2018-02-21T08:30:10.950Z,52.43
2018-02-21T08:32:39.127Z,47.50
2018-02-21T08:35:07.247Z,47.57
2018-02-21T08:37:36.068Z,51.67
2018-02-21T08:40:03.890Z,52.97
2018-02-21T08:42:31.625Z,58.43
2018-02-21T08:44:59.487Z,58.57
2018-02-21T08:47:28.906Z,58.67
2018-02-21T08:49:56.887Z,56.43
2018-02-21T08:52:24.808Z,61.13
2018-02-21T08:54:52.605Z,61.67
2018-02-21T08:57:21.486Z,60.50
2018-02-21T08:59:49.306Z,63.67
2018-02-21T09:04:49.189Z,57.90
2018-02-21T09:07:17.089Z,56.60
2018-02-21T09:09:45.011Z,49.47
2018-02-21T09:12:12.772Z,50.80
2018-02-21T09:14:40.650Z,58.43
2018-02-21T09:17:08.390Z,54.93
2018-02-21T09:19:36.370Z,52.07
2018-02-21T09:22:04.310Z,50.60
2018-02-21T09:24:32.655Z,55.50
2018-02-21T09:27:00.467Z,50.17
2018-02-21T09:29:28.868Z,53.70
2018-02-21T09:31:57.408Z,49.73
2018-02-21T09:34:25.527Z,46.97
2018-02-21T09:36:53.447Z,47.90
2018-02-21T09:39:21.688Z,47.70
2018-02-21T09:41:49.568Z,47.93
2018-02-21T09:44:17.348Z,47.77
2018-02-21T09:46:45.127Z,47.10
2018-02-21T09:49:12.989Z,47.40
2018-02-21T09:51:40.903Z,52.27
2018-02-21T09:54:08.726Z,45.47
2018-02-21T09:56:36.646Z,54.20
2018-02-21T09:59:04.526Z,50.93
2018-02-21T10:01:34.066Z,53.67
2018-02-21T10:04:01.989Z,48.97
2018-02-21T10:06:30.047Z,47.87
2018-02-21T10:08:58.606Z,47.07
2018-02-21T10:11:27.713Z,50.97
2018-02-21T10:13:55.807Z,48.47
2018-02-21T10:16:23.727Z,45.63
2018-02-21T10:18:51.806Z,44.07
2018-02-21T10:21:21.253Z,45.70
2018-02-21T10:23:49.187Z,43.03
2018-02-21T10:26:17.026Z,49.63
2018-02-21T10:31:16.906Z,49.13
2018-02-21T10:33:44.828Z,45.70
2018-02-21T10:36:12.968Z,45.63
2018-02-21T10:38:40.686Z,44.47
2018-02-21T10:41:08.607Z,42.47
2018-02-21T10:43:37.247Z,44.37
2018-02-21T10:46:05.166Z,45.90
2018-02-21T10:48:33.005Z,43.87
2018-02-21T10:51:00.945Z,41.93
2018-02-21T10:53:28.707Z,42.00
2018-02-21T10:55:56.527Z,47.40
2018-02-21T10:58:24.366Z,41.57
2018-02-21T11:00:57.890Z,41.20
2018-02-21T11:03:26.466Z,44.00
2018-02-21T11:05:54.587Z,41.90
2018-02-21T11:08:22.467Z,40.70
2018-02-21T11:10:50.285Z,43.70
2018-02-21T11:13:18.108Z,41.43
2018-02-21T11:15:46.206Z,41.83
2018-02-21T11:18:14.413Z,41.30
2018-02-21T11:20:42.445Z,42.30
2018-02-21T11:23:10.405Z,40.67
2018-02-21T11:25:38.525Z,44.10
2018-02-21T11:28:06.525Z,40.27
2018-02-21T11:30:35.030Z,41.13
2018-02-21T11:33:02.845Z,39.47
2018-02-21T11:35:30.725Z,41.40
2018-02-21T11:37:59.340Z,43.57
2018-02-21T11:40:27.136Z,38.30
2018-02-21T11:42:54.905Z,39.63
2018-02-21T11:45:22.629Z,32.23
2018-02-21T11:47:50.427Z,36.53
2018-02-21T11:50:18.466Z,37.97
2018-02-21T11:52:47.327Z,36.93
2018-02-21T11:57:47.326Z,38.77
2018-02-21T12:00:15.246Z,42.20
2018-02-21T12:02:43.117Z,37.63
2018-02-21T12:05:11.006Z,38.93
2018-02-21T12:07:39.089Z,37.67
2018-02-21T12:10:07.728Z,31.93
2018-02-21T12:12:35.630Z,37.73
2018-02-21T12:15:03.552Z,41.87
2018-02-21T12:17:32.167Z,38.80
2018-02-21T12:20:00.306Z,38.33
2018-02-21T12:22:28.806Z,38.93
2018-02-21T12:24:58.068Z,38.33
2018-02-21T12:27:25.926Z,39.63
2018-02-21T12:29:53.807Z,35.73
2018-02-21T12:35:25.167Z,39.93
2018-02-21T12:37:53.046Z,35.67
2018-02-21T12:40:26.426Z,39.97
2018-02-21T12:42:54.350Z,43.40
2018-02-21T12:45:22.187Z,40.87
2018-02-21T12:47:50.228Z,39.93
2018-02-21T12:50:18.541Z,37.80
2018-02-21T12:52:47.974Z,38.10
2018-02-21T12:55:15.891Z,42.50
2018-02-21T12:57:43.871Z,40.93
2018-02-21T13:00:14.875Z,41.17
2018-02-21T13:02:42.946Z,41.37
2018-02-21T13:05:11.067Z,41.63
2018-02-21T13:07:39.195Z,43.13
2018-02-21T13:10:07.029Z,45.03
2018-02-21T13:12:34.906Z,38.83
2018-02-21T13:15:04.568Z,42.93
2018-02-21T13:17:32.447Z,44.07
2018-02-21T13:20:00.606Z,40.00
2018-02-21T13:22:28.446Z,39.60
2018-02-21T13:24:56.426Z,33.90
2018-02-21T13:27:24.327Z,36.13
2018-02-21T13:29:52.127Z,38.37
2018-02-21T13:32:20.305Z,36.70
2018-02-21T13:34:48.190Z,38.80
2018-02-21T13:37:16.206Z,40.93
2018-02-21T13:39:44.286Z,40.17
2018-02-21T13:42:12.412Z,40.50
2018-02-21T13:44:40.615Z,41.77
2018-02-21T13:47:08.812Z,40.20
2018-02-21T13:49:36.873Z,39.63
2018-02-21T13:52:05.096Z,38.60
2018-02-21T13:54:32.997Z,40.93
2018-02-21T13:57:01.183Z,37.37
2018-02-21T13:59:29.572Z,34.80
2018-02-21T14:01:57.367Z,32.97
2018-02-21T14:04:26.147Z,36.87
2018-02-21T14:06:54.035Z,34.73
2018-02-21T14:09:22.228Z,33.83
2018-02-21T14:11:50.153Z,38.03
2018-02-21T14:14:18.033Z,32.80
2018-02-21T14:16:45.871Z,36.53
2018-02-21T14:19:15.906Z,37.60
2018-02-21T14:21:43.947Z,36.70
2018-02-21T14:24:12.091Z,38.83
2018-02-21T14:26:39.967Z,40.47
2018-02-21T14:29:07.828Z,37.43
2018-02-21T14:31:36.287Z,38.07
2018-02-21T14:34:03.891Z,37.27
2018-02-21T14:36:31.498Z,42.80
2018-02-21T14:38:59.130Z,41.83
2018-02-21T14:41:26.756Z,41.60
2018-02-21T14:43:54.424Z,47.53
2018-02-21T14:46:22.017Z,56.57
2018-02-21T14:48:49.639Z,43.60
2018-02-21T14:51:17.298Z,44.50
2018-02-21T14:53:44.892Z,41.70
2018-02-21T14:56:13.032Z,37.20
2018-02-21T14:58:40.706Z,35.87
2018-02-21T15:01:08.344Z,41.50
2018-02-21T15:03:35.996Z,44.10
2018-02-21T15:06:04.170Z,41.90
2018-02-21T15:08:32.007Z,45.13
2018-02-21T15:10:59.950Z,39.20
2018-02-21T15:13:27.748Z,40.63
2018-02-21T15:15:55.608Z,44.13
2018-02-21T15:18:23.647Z,43.17
2018-02-21T15:20:51.493Z,42.80
2018-02-21T15:23:19.450Z,43.40
2018-02-21T15:25:47.327Z,47.10
2018-02-21T15:28:15.268Z,43.10
2018-02-21T15:30:43.396Z,45.17
2018-02-21T15:33:11.348Z,47.47
2018-02-21T15:35:39.187Z,45.97
2018-02-21T15:38:08.549Z,48.83
2018-02-21T15:40:36.772Z,47.90
2018-02-21T15:43:04.650Z,46.33
2018-02-21T15:45:32.489Z,48.87
2018-02-21T15:48:00.427Z,53.43
2018-02-21T15:50:28.578Z,58.87
2018-02-21T15:52:56.488Z,54.63
2018-02-21T15:55:24.448Z,52.87
2018-02-21T15:57:53.028Z,51.93
2018-02-21T16:00:20.737Z,53.17
2018-02-21T16:02:48.876Z,52.30
2018-02-21T16:05:17.287Z,51.23
2018-02-21T16:07:46.406Z,50.63
2018-02-21T16:10:14.326Z,53.57
2018-02-21T16:12:42.553Z,52.37
2018-02-21T16:15:11.132Z,53.93
2018-02-21T16:17:39.174Z,56.77
2018-02-21T16:20:07.092Z,50.87
2018-02-21T16:22:34.934Z,56.87
2018-02-21T16:25:02.731Z,54.40
2018-02-21T16:27:30.855Z,57.53
2018-02-21T16:29:58.730Z,92.27
2018-02-21T16:32:27.891Z,100.33
2018-02-21T16:34:55.850Z,90.13
2018-02-21T16:37:23.690Z,88.60
2018-02-21T16:39:52.351Z,84.17
2018-02-21T16:42:20.232Z,76.63
2018-02-21T16:44:48.091Z,72.47
2018-02-21T16:47:16.171Z,74.53
2018-02-21T16:49:43.952Z,71.70
2018-02-21T16:52:11.933Z,62.93
2018-02-21T16:54:40.312Z,69.50
2018-02-21T16:57:08.412Z,58.90
2018-02-21T16:59:36.689Z,56.23
2018-02-21T17:02:04.827Z,59.83
2018-02-21T17:04:32.931Z,57.73
2018-02-21T17:07:00.889Z,57.60
2018-02-21T17:09:28.808Z,56.90
2018-02-21T17:11:57.687Z,53.90
2018-02-21T17:14:25.827Z,56.40
2018-02-21T17:16:53.608Z,56.00
2018-02-21T17:19:21.629Z,54.30
2018-02-21T17:21:50.472Z,57.90
2018-02-21T17:24:18.851Z,55.00
2018-02-21T17:26:46.691Z,55.50
2018-02-21T17:29:14.807Z,58.50
2018-02-21T17:31:43.387Z,57.97
2018-02-21T17:34:11.490Z,59.47
2018-02-21T17:36:39.309Z,58.33
2018-02-21T17:39:07.288Z,62.20
2018-02-21T17:41:35.188Z,67.17
2018-02-21T17:44:03.009Z,68.93
2018-02-21T17:46:32.543Z,70.67
2018-02-21T17:49:00.651Z,68.37
2018-02-21T17:51:28.648Z,63.40
2018-02-21T17:53:56.789Z,67.83
2018-02-21T17:56:24.647Z,67.43
2018-02-21T17:58:53.046Z,69.30
2018-02-21T18:01:20.889Z,71.53
2018-02-21T18:03:49.449Z,60.67
2018-02-21T18:06:17.368Z,66.60
2018-02-21T18:08:45.328Z,65.57
2018-02-21T18:11:13.169Z,67.57
2018-02-21T18:13:41.029Z,64.40
2018-02-21T18:16:08.985Z,66.63
2018-02-21T18:18:36.924Z,75.60
2018-02-21T18:21:04.805Z,71.60
2018-02-21T18:23:33.068Z,71.57
2018-02-21T18:26:00.891Z,70.57
2018-02-21T18:28:28.665Z,72.70
2018-02-21T18:30:56.605Z,72.10
2018-02-21T18:33:24.367Z,79.17
2018-02-21T18:35:52.456Z,72.67
2018-02-21T18:38:20.209Z,76.03
2018-02-21T18:40:47.987Z,83.47
2018-02-21T18:43:16.768Z,79.20
2018-02-21T18:45:44.612Z,82.97
2018-02-21T18:48:12.446Z,81.67
2018-02-21T18:50:40.296Z,79.90
2018-02-21T18:53:09.512Z,79.53
2018-02-21T18:55:37.766Z,82.50
2018-02-21T18:58:05.531Z,80.97
2018-02-21T19:00:33.388Z,85.13
2018-02-21T19:03:01.446Z,78.23
2018-02-21T19:05:29.246Z,82.27
2018-02-21T19:07:57.025Z,78.67
2018-02-21T19:10:24.925Z,79.47
2018-02-21T19:12:53.046Z,76.57
2018-02-21T19:15:20.826Z,78.10
2018-02-21T19:17:48.730Z,80.83
2018-02-21T19:20:16.507Z,75.27
2018-02-21T19:22:44.448Z,69.33
2018-02-21T19:25:12.316Z,86.07
2018-02-21T19:27:40.010Z,81.87
2018-02-21T19:30:07.739Z,69.53
2018-02-21T19:32:35.632Z,70.17
2018-02-21T19:35:03.371Z,70.07
2018-02-21T19:37:32.011Z,69.83
2018-02-21T19:39:59.833Z,66.30
2018-02-21T19:42:28.017Z,74.90
2018-02-21T19:44:55.811Z,74.00
2018-02-21T19:47:23.572Z,72.17
2018-02-21T19:49:51.367Z,77.57
2018-02-21T19:52:20.756Z,70.70
2018-02-21T19:54:48.653Z,71.97
2018-02-21T19:57:16.449Z,73.70
2018-02-21T19:59:44.657Z,68.30
2018-02-21T20:02:12.512Z,64.40
2018-02-21T20:04:40.610Z,72.07
2018-02-21T20:07:08.430Z,61.83
2018-02-21T20:09:36.428Z,65.23
2018-02-21T20:12:04.628Z,71.40
2018-02-21T20:14:32.429Z,71.17
2018-02-21T20:17:01.207Z,67.07
2018-02-21T20:19:29.368Z,64.57
2018-02-21T20:21:57.268Z,77.47
2018-02-21T20:24:25.087Z,73.63
2018-02-21T20:26:52.947Z,89.87
2018-02-21T20:29:20.807Z,87.87
2018-02-21T20:31:48.627Z,98.53
2018-02-21T20:34:16.667Z,92.87
2018-02-21T20:36:44.568Z,89.17
2018-02-21T20:39:12.586Z,84.33
2018-02-21T20:41:40.726Z,71.77
2018-02-21T20:44:08.606Z,83.60
2018-02-21T20:49:08.369Z,79.03
2018-02-21T20:51:36.989Z,78.23
2018-02-21T20:54:04.867Z,78.73
2018-02-21T20:56:32.711Z,86.23
2018-02-21T20:59:00.649Z,69.13
2018-02-21T21:01:28.614Z,73.43
2018-02-21T21:03:56.447Z,77.23
2018-02-21T21:06:24.289Z,84.30
2018-02-21T21:08:52.208Z,81.57
2018-02-21T21:11:21.075Z,82.27
2018-02-21T21:13:49.092Z,76.53
2018-02-21T21:16:17.344Z,83.60
2018-02-21T21:18:45.195Z,89.87
2018-02-21T21:21:13.092Z,89.97
2018-02-21T21:23:41.007Z,86.17
2018-02-21T21:26:08.936Z,83.97
2018-02-21T21:28:37.050Z,90.73
2018-02-21T21:31:04.957Z,107.53
2018-02-21T21:33:33.050Z,109.13
2018-02-21T21:36:01.890Z,90.13
2018-02-21T21:38:32.174Z,84.53
2018-02-21T21:41:01.430Z,85.57
2018-02-21T21:43:29.148Z,92.13
2018-02-21T21:45:56.911Z,92.67
2018-02-21T21:48:24.768Z,78.83
2018-02-21T21:50:53.288Z,74.40
2018-02-21T21:53:21.072Z,82.53
2018-02-21T21:55:48.830Z,77.07
2018-02-21T21:58:16.572Z,78.70
2018-02-21T22:00:44.892Z,88.13
2018-02-21T22:03:12.654Z,82.37
2018-02-21T22:05:40.376Z,72.60
2018-02-21T22:08:08.210Z,79.00
2018-02-21T22:10:36.190Z,86.00
2018-02-21T22:13:03.971Z,86.07
2018-02-21T22:15:31.771Z,93.17
2018-02-21T22:17:59.513Z,86.80
2018-02-21T22:20:27.367Z,92.17
2018-02-21T22:22:55.169Z,87.00
2018-02-21T22:25:22.949Z,83.93
2018-02-21T22:27:50.729Z,83.60
2018-02-21T22:30:21.176Z,85.60
2018-02-21T22:32:48.985Z,79.33
2018-02-21T22:35:17.013Z,86.13
2018-02-21T22:37:45.294Z,86.80
2018-02-21T22:40:13.088Z,86.27
2018-02-21T22:42:41.253Z,92.73
2018-02-21T22:45:09.166Z,87.83
2018-02-21T22:47:37.766Z,83.87
2018-02-21T22:50:06.150Z,88.33
2018-02-21T22:52:34.367Z,95.37
2018-02-21T22:55:02.127Z,93.17
2018-02-21T22:57:29.967Z,91.57
2018-02-21T22:59:57.987Z,84.77
2018-02-21T23:02:25.855Z,82.27
2018-02-21T23:04:53.975Z,85.20
2018-02-21T23:07:22.156Z,84.67
2018-02-21T23:09:50.282Z,86.03
2018-02-21T23:12:18.074Z,89.47
2018-02-21T23:14:45.955Z,87.07
2018-02-21T23:17:13.775Z,95.87
2018-02-21T23:19:41.615Z,106.93
2018-02-21T23:22:09.595Z,99.47
2018-02-21T23:24:37.394Z,97.63
2018-02-21T23:27:05.174Z,110.27
2018-02-21T23:29:33.054Z,105.60
2018-02-21T23:32:01.355Z,105.57
2018-02-21T23:34:29.715Z,101.00
2018-02-21T23:36:57.654Z,104.43
2018-02-21T23:39:25.575Z,100.83
2018-02-21T23:41:53.575Z,102.73
2018-02-21T23:44:21.495Z,109.53
2018-02-21T23:46:51.169Z,101.53
2018-02-21T23:49:19.128Z,103.77
2018-02-21T23:51:47.027Z,104.90
2018-02-21T23:54:15.048Z,101.07
2018-02-21T23:56:42.968Z,109.73
2018-02-21T23:59:10.808Z,101.73
